Bookmark and Share
Track history (hours):
 

MSC Mara

Last reported at 2014-Apr-20 13:33 UTC. Time now 2014-Apr-20 23:44 UTC.
Position N 01°17' E 103°22'.

Length 294 m; draft 8.3 m.

MMSI: 538002955.

NotesDate/timePositionNaut miles runAvg speedWind from/ knotsBaromVisibWave heightAir tempDewpointWater temp
2014-Apr-20 13:33N 01°17' E 103°22'11 8.7
2014-Apr-20 12:15N 01°13' E 103°33'0 0.0
2014-Apr-20 11:33N 01°13' E 103°33'0 0.0
2014-Apr-20 10:33N 01°13' E 103°33'0 0.1
2014-Apr-20 09:32N 01°13' E 103°33'0 0.1
2014-Apr-20 08:32N 01°13' E 103°33'0 0.1
2014-Apr-20 07:17N 01°13' E 103°33'0 0.0
2014-Apr-20 06:32N 01°13' E 103°33'0 0.0
2014-Apr-20 05:32N 01°13' E 103°33'0 0.0
2014-Apr-20 04:32N 01°13' E 103°33'0 0.1
2014-Apr-20 03:32N 01°13' E 103°33'0 0.1
2014-Apr-20 02:17N 01°13' E 103°33'0 0.3
2014-Apr-20 01:32N 01°13' E 103°33'0 0.0
2014-Apr-20 00:29N 01°13' E 103°33'0 0.0
2014-Apr-19 23:32N 01°13' E 103°33'0 0.0
2014-Apr-19 22:17N 01°13' E 103°33'0 0.0
2014-Apr-19 21:32N 01°13' E 103°33'0 0.1
2014-Apr-19 20:29N 01°13' E 103°33'0 0.0
2014-Apr-19 19:32N 01°13' E 103°33'0 0.1
2014-Apr-19 18:32N 01°13' E 103°33'0 0.0
2014-Apr-19 17:23N 01°13' E 103°33'0 0.0
2014-Apr-19 16:17N 01°13' E 103°33'0 0.0
2014-Apr-19 15:32N 01°13' E 103°33'0 0.0
2014-Apr-19 14:29N 01°13' E 103°33'0 0.0
2014-Apr-19 13:29N 01°13' E 103°33'0 0.0
2014-Apr-19 12:32N 01°13' E 103°33'0 0.0
2014-Apr-19 11:26N 01°13' E 103°33'0 0.1
2014-Apr-19 10:17N 01°13' E 103°33'0 0.3
2014-Apr-19 09:32N 01°13' E 103°33'0 0.0
2014-Apr-19 08:26N 01°13' E 103°33'0 0.0
2014-Apr-19 07:26N 01°13' E 103°33'0 0.0
2014-Apr-19 06:32N 01°13' E 103°33'0 0.0
2014-Apr-19 05:26N 01°13' E 103°33'0 0.0
2014-Apr-19 04:32N 01°13' E 103°33'0 0.1
2014-Apr-19 03:17N 01°13' E 103°33'0 0.2
2014-Apr-19 02:32N 01°13' E 103°33'0 0.1
2014-Apr-19 01:32N 01°13' E 103°33'0 0.1
2014-Apr-19 00:29N 01°13' E 103°33'0 0.1
2014-Apr-18 23:32N 01°13' E 103°33'0 0.1
2014-Apr-18 22:31N 01°13' E 103°33'0 0.1
2014-Apr-18 21:28N 01°13' E 103°33'0 0.0
2014-Apr-18 20:31N 01°13' E 103°33'0 0.0
2014-Apr-18 19:25N 01°13' E 103°33'0 0.0
2014-Apr-18 18:31N 01°13' E 103°33'0 0.1
2014-Apr-18 17:28N 01°13' E 103°33'0 0.3
2014-Apr-18 16:31N 01°13' E 103°33'0 0.0
2014-Apr-18 15:25N 01°13' E 103°33'0 0.1
2014-Apr-18 14:19N 01°13' E 103°33'1 1.1
2014-Apr-18 13:33N 01°14' E 103°32'7 7.3
2014-Apr-18 12:33N 01°21' E 103°33'0 0.3
2014-Apr-18 11:33N 01°21' E 103°33'0 0.1
2014-Apr-18 10:30N 01°21' E 103°33'0 0.0
2014-Apr-18 09:30N 01°21' E 103°33'0 0.1
2014-Apr-18 08:30N 01°21' E 103°33'0 0.1
2014-Apr-18 07:33N 01°21' E 103°33'0 0.1
2014-Apr-18 06:33N 01°21' E 103°33'0 0.0
2014-Apr-18 05:33N 01°21' E 103°33'0 0.0
2014-Apr-18 04:21N 01°21' E 103°33'0 0.0
2014-Apr-18 03:33N 01°21' E 103°33'0 0.0
2014-Apr-18 02:30N 01°21' E 103°33'0 0.0
2014-Apr-18 01:30N 01°21' E 103°33'0 0.0
2014-Apr-18 00:33N 01°21' E 103°33'0 0.0
2014-Apr-17 23:33N 01°21' E 103°33'0 0.0
2014-Apr-17 22:33N 01°21' E 103°33'0 0.1
2014-Apr-17 21:33N 01°21' E 103°33'0 0.1
2014-Apr-17 20:30N 01°21' E 103°33'0 0.0
2014-Apr-17 19:33N 01°21' E 103°33'0 0.0
2014-Apr-17 18:33N 01°21' E 103°33'0 0.1
2014-Apr-17 17:33N 01°21' E 103°33'0 0.1
2014-Apr-17 16:27N 01°21' E 103°33'0 0.0
2014-Apr-17 15:30N 01°21' E 103°33'0 0.1
2014-Apr-17 14:30N 01°21' E 103°33'0 0.0
2014-Apr-17 13:30N 01°21' E 103°33'0 0.0
2014-Apr-17 12:32N 01°21' E 103°33'0 0.1
2014-Apr-17 11:33N 01°21' E 103°33'7 7.1
2014-Apr-17 10:33N 01°14' E 103°32'1 0.6
2014-Apr-17 09:25N 01°14' E 103°31'0 0.3
2014-Apr-17 08:31N 01°14' E 103°31'0 0.1
2014-Apr-17 07:31N 01°14' E 103°31'0 0.0
2014-Apr-17 06:25N 01°14' E 103°31'0 0.0
2014-Apr-17 05:31N 01°14' E 103°31'0 0.0
2014-Apr-17 04:04N 01°14' E 103°31'0 0.0
2014-Apr-17 03:22N 01°14' E 103°31'0 0.1
2014-Apr-17 01:34N 01°14' E 103°31'0 0.1
2014-Apr-17 00:34N 01°14' E 103°31'0 0.0
2014-Apr-16 23:33N 01°14' E 103°31'0 0.0
2014-Apr-16 22:30N 01°14' E 103°31'0 0.0
2014-Apr-16 21:33N 01°14' E 103°31'0 0.1
2014-Apr-16 18:18N 01°14' E 103°31'0 0.0
2014-Apr-16 17:06N 01°14' E 103°31'0 0.0
2014-Apr-16 16:24N 01°14' E 103°31'0 0.1
2014-Apr-16 14:27N 01°14' E 103°31'0 0.1
2014-Apr-16 13:24N 01°14' E 103°31'0 0.0
2014-Apr-16 12:33N 01°14' E 103°31'0 0.0
2014-Apr-16 11:30N 01°14' E 103°31'0 0.0
2014-Apr-16 10:33N 01°14' E 103°31'0 0.4
2014-Apr-16 09:33N 01°14' E 103°31'8 8.0
2014-Apr-16 08:34N 01°11' E 103°38'1211.4
2014-Apr-16 07:33N 01°12' E 103°50'  

Dump ship's entire track history

sailing weather and tide predictions

MSC Mara — V7NF9 — position and weather